Terminal Aerodrome Forecast
Issued by NWS

Home | Current Version | Previous Version | Text Only | Print | Product List | Glossary On
Versions: 1 2 3 4 5 6 7 8 9 10 11 12 13 14 15 16 17 18 19 20
000
FTUS41 KILN 300540
TAFLCK
TAF
KLCK 300540Z 3006/3106 17004KT P6SM VCTS SCT050CB BKN070
      TEMPO 3006/3009 3SM -TSRA BKN040CB OVC070
     FM300900 17003KT P6SM SCT035 BKN080
      TEMPO 3009/3012 5SM BR
     FM301200 21006KT P6SM BKN040
     FM301900 21008KT P6SM VCSH BKN040
     FM310000 21004KT P6SM SCT030 SCT200=

USA.gov is the U.S. government's official web portal to all federal, state and local government web resources and services.